createdAt,value
2017-10-07T00:00:09.582Z,1007.15
2017-10-07T00:01:09.573Z,1007.11
2017-10-07T00:02:09.565Z,1007.17
2017-10-07T00:03:09.581Z,1007.16
2017-10-07T00:04:09.540Z,1007.13
2017-10-07T00:05:09.876Z,1007.15
2017-10-07T00:06:09.522Z,1007.11
2017-10-07T00:07:09.517Z,1007.10
2017-10-07T00:08:09.504Z,1007.07
2017-10-07T00:09:09.499Z,1007.08
2017-10-07T00:10:09.480Z,1007.13
2017-10-07T00:11:09.809Z,1007.14
2017-10-07T00:12:09.471Z,1007.12
2017-10-07T00:13:09.465Z,1007.14
2017-10-07T00:14:09.444Z,1007.13
2017-10-07T00:15:09.439Z,1007.17
2017-10-07T00:16:09.449Z,1007.14
2017-10-07T00:17:09.485Z,1007.12
2017-10-07T00:18:09.419Z,1007.13
2017-10-07T00:19:09.413Z,1007.13
2017-10-07T00:20:09.410Z,1007.15
2017-10-07T00:21:09.385Z,1007.14
2017-10-07T00:22:09.372Z,1007.12
2017-10-07T00:23:09.401Z,1007.14
2017-10-07T00:24:09.373Z,1007.10
2017-10-07T00:25:09.351Z,1007.14
2017-10-07T00:26:09.348Z,1007.13
2017-10-07T00:27:09.370Z,1007.12
2017-10-07T00:28:09.319Z,1007.14
2017-10-07T00:29:09.312Z,1007.09
2017-10-07T00:30:09.304Z,1007.05
2017-10-07T00:31:09.304Z,1007.06
2017-10-07T00:32:09.606Z,1007.09
2017-10-07T00:33:09.291Z,1007.11
2017-10-07T00:34:09.278Z,1007.07
2017-10-07T00:35:09.266Z,1007.05
2017-10-07T00:36:09.249Z,1007.06
2017-10-07T00:37:09.251Z,1007.09
2017-10-07T00:38:09.617Z,1007.04
2017-10-07T00:39:09.223Z,1007.05
2017-10-07T00:40:09.215Z,1007.04
2017-10-07T00:41:09.201Z,1007.01
2017-10-07T00:42:09.209Z,1006.96
2017-10-07T00:43:09.196Z,1006.95
2017-10-07T00:44:09.236Z,1006.96
2017-10-07T00:45:09.172Z,1006.94
2017-10-07T00:46:09.174Z,1006.88
2017-10-07T00:47:09.165Z,1006.89
2017-10-07T00:48:09.147Z,1006.88
2017-10-07T00:49:09.151Z,1006.88
2017-10-07T00:50:09.559Z,1006.85
2017-10-07T00:51:09.118Z,1006.87
2017-10-07T00:52:09.106Z,1006.85
2017-10-07T00:53:09.101Z,1006.87
2017-10-07T00:54:09.098Z,1006.84
2017-10-07T00:55:09.076Z,1006.77
2017-10-07T00:56:09.512Z,1006.82
2017-10-07T00:57:09.063Z,1006.78
2017-10-07T00:58:09.052Z,1006.77
2017-10-07T00:59:09.055Z,1006.79
2017-10-07T01:00:09.039Z,1006.78
2017-10-07T01:01:09.035Z,1006.78
2017-10-07T01:02:09.500Z,1006.78
2017-10-07T01:03:09.015Z,1006.75
2017-10-07T01:04:08.999Z,1006.71
2017-10-07T01:05:08.992Z,1006.74
2017-10-07T01:06:08.981Z,1006.72
2017-10-07T01:07:08.977Z,1006.76
2017-10-07T01:08:09.000Z,1006.76
2017-10-07T01:09:08.967Z,1006.77
2017-10-07T01:10:08.956Z,1006.76
2017-10-07T01:11:08.956Z,1006.71
2017-10-07T01:12:08.925Z,1006.76
2017-10-07T01:13:09.157Z,1006.75
2017-10-07T01:14:08.922Z,1006.68
2017-10-07T01:15:08.912Z,1006.68
2017-10-07T01:16:08.900Z,1006.72
2017-10-07T01:17:08.900Z,1006.67
2017-10-07T01:18:08.872Z,1006.63
2017-10-07T01:19:09.272Z,1006.61
2017-10-07T01:20:08.872Z,1006.61
2017-10-07T01:21:08.858Z,1006.63
2017-10-07T01:22:08.837Z,1006.61
2017-10-07T01:23:08.835Z,1006.59
2017-10-07T01:24:08.828Z,1006.60
2017-10-07T01:25:08.879Z,1006.62
2017-10-07T01:26:08.819Z,1006.60
2017-10-07T01:27:08.802Z,1006.59
2017-10-07T01:28:08.797Z,1006.57
2017-10-07T01:29:08.776Z,1006.59
2017-10-07T01:30:08.767Z,1006.58
2017-10-07T01:31:09.196Z,1006.61
2017-10-07T01:32:08.761Z,1006.55
2017-10-07T01:33:08.754Z,1006.54
2017-10-07T01:34:08.737Z,1006.53
2017-10-07T01:35:08.724Z,1006.50
2017-10-07T01:36:08.722Z,1006.60
2017-10-07T01:37:09.165Z,1006.53
2017-10-07T01:38:08.691Z,1006.54
2017-10-07T01:39:08.689Z,1006.50
2017-10-07T01:40:08.693Z,1006.47
2017-10-07T01:41:08.674Z,1006.48
2017-10-07T01:42:08.662Z,1006.48
2017-10-07T01:43:09.003Z,1006.44
2017-10-07T01:44:08.655Z,1006.46
2017-10-07T01:45:08.634Z,1006.39
2017-10-07T01:46:08.637Z,1006.40
2017-10-07T01:47:08.626Z,1006.37
2017-10-07T01:48:08.619Z,1006.41
2017-10-07T01:49:08.741Z,1006.37
2017-10-07T01:50:08.599Z,1006.34
2017-10-07T01:51:08.591Z,1006.32
2017-10-07T01:52:08.583Z,1006.33
2017-10-07T01:53:08.573Z,1006.31
2017-10-07T01:54:08.560Z,1006.31
2017-10-07T01:55:08.972Z,1006.31
2017-10-07T01:56:08.552Z,1006.26
2017-10-07T01:57:08.532Z,1006.26
2017-10-07T01:58:08.526Z,1006.25
2017-10-07T01:59:08.509Z,1006.31
2017-10-07T02:00:08.505Z,1006.30
2017-10-07T02:01:08.846Z,1006.30
2017-10-07T02:02:08.483Z,1006.31
2017-10-07T02:03:08.478Z,1006.30
2017-10-07T02:04:08.461Z,1006.31
2017-10-07T02:05:08.459Z,1006.34
2017-10-07T02:06:08.458Z,1006.32
2017-10-07T02:07:08.880Z,1006.29
2017-10-07T02:08:08.426Z,1006.32
2017-10-07T02:09:08.418Z,1006.30
2017-10-07T02:10:08.412Z,1006.32
2017-10-07T02:11:08.412Z,1006.31
2017-10-07T02:12:08.408Z,1006.31
2017-10-07T02:13:08.445Z,1006.27
2017-10-07T02:14:08.382Z,1006.30
2017-10-07T02:15:08.374Z,1006.29
2017-10-07T02:16:08.366Z,1006.26
2017-10-07T02:17:08.362Z,1006.30
2017-10-07T02:18:08.356Z,1006.31
2017-10-07T02:19:08.599Z,1006.28
2017-10-07T02:20:08.323Z,1006.34
2017-10-07T02:21:08.325Z,1006.28
2017-10-07T02:22:08.319Z,1006.31
2017-10-07T02:23:08.292Z,1006.31
2017-10-07T02:24:08.291Z,1006.29
2017-10-07T02:25:08.348Z,1006.26
2017-10-07T02:26:08.275Z,1006.30
2017-10-07T02:27:08.266Z,1006.32
2017-10-07T02:28:08.282Z,1006.30
2017-10-07T02:29:08.244Z,1006.27
2017-10-07T02:30:08.239Z,1006.29
2017-10-07T02:31:08.640Z,1006.30
2017-10-07T02:32:08.225Z,1006.27
2017-10-07T02:33:08.219Z,1006.28
2017-10-07T02:34:08.200Z,1006.28
2017-10-07T02:35:08.202Z,1006.25
2017-10-07T02:36:08.180Z,1006.27
2017-10-07T02:37:08.314Z,1006.30
2017-10-07T02:38:08.164Z,1006.25
2017-10-07T02:39:08.164Z,1006.28
2017-10-07T02:40:08.144Z,1006.25
2017-10-07T02:41:08.133Z,1006.27
2017-10-07T02:42:08.125Z,1006.29
2017-10-07T02:43:08.573Z,1006.28
2017-10-07T02:44:08.107Z,1006.25
2017-10-07T02:45:08.117Z,1006.27
2017-10-07T02:46:08.105Z,1006.24
2017-10-07T02:47:08.081Z,1006.27
2017-10-07T02:48:08.083Z,1006.25
2017-10-07T02:49:08.466Z,1006.22
2017-10-07T02:50:08.061Z,1006.24
2017-10-07T02:51:08.061Z,1006.28
2017-10-07T02:52:08.043Z,1006.27
2017-10-07T02:53:08.052Z,1006.25
2017-10-07T02:54:08.051Z,1006.24
2017-10-07T02:55:08.379Z,1006.28
2017-10-07T02:56:08.001Z,1006.25
2017-10-07T02:57:08.008Z,1006.33
2017-10-07T02:58:07.998Z,1006.28
2017-10-07T02:59:07.980Z,1006.31
2017-10-07T03:00:07.978Z,1006.31
2017-10-07T03:01:08.326Z,1006.30
2017-10-07T03:02:07.944Z,1006.28
2017-10-07T03:03:07.952Z,1006.25
2017-10-07T03:04:07.940Z,1006.28
2017-10-07T03:05:07.929Z,1006.30
2017-10-07T03:06:07.927Z,1006.28
2017-10-07T03:07:07.969Z,1006.28
2017-10-07T03:08:07.906Z,1006.27
2017-10-07T03:09:07.897Z,1006.27
2017-10-07T03:10:07.897Z,1006.26
2017-10-07T03:11:07.874Z,1006.24
2017-10-07T03:12:07.878Z,1006.24
2017-10-07T03:13:07.992Z,1006.18
2017-10-07T03:14:07.848Z,1006.16
2017-10-07T03:15:07.844Z,1006.21
2017-10-07T03:16:07.839Z,1006.17
2017-10-07T03:17:07.825Z,1006.15
2017-10-07T03:18:07.822Z,1006.13
2017-10-07T03:19:07.821Z,1006.17
2017-10-07T03:20:07.802Z,1006.14
2017-10-07T03:21:07.798Z,1006.14
2017-10-07T03:22:08.108Z,1006.09
2017-10-07T03:23:07.757Z,1006.13
2017-10-07T03:24:07.755Z,1006.09
2017-10-07T03:25:07.740Z,1006.11
2017-10-07T03:26:07.747Z,1006.11
2017-10-07T03:27:07.724Z,1006.09
2017-10-07T03:28:07.851Z,1006.09
2017-10-07T03:29:07.718Z,1006.08
2017-10-07T03:30:07.712Z,1006.11
2017-10-07T03:31:07.702Z,1006.09
2017-10-07T03:32:07.698Z,1006.10
2017-10-07T03:33:07.682Z,1006.07
2017-10-07T03:34:08.062Z,1006.06
2017-10-07T03:35:07.667Z,1006.05
2017-10-07T03:36:07.642Z,1006.07
2017-10-07T03:37:07.646Z,1006.01
2017-10-07T03:38:07.621Z,1006.04
2017-10-07T03:39:07.634Z,1006.03
2017-10-07T03:40:08.041Z,1006.06
2017-10-07T03:41:07.601Z,1006.00
2017-10-07T03:42:07.589Z,1005.97
2017-10-07T03:43:07.580Z,1005.95
2017-10-07T03:44:07.593Z,1005.97
2017-10-07T03:45:07.578Z,1005.93
2017-10-07T03:46:07.943Z,1005.94
2017-10-07T03:47:07.559Z,1005.98
2017-10-07T03:48:07.550Z,1005.92
2017-10-07T03:49:07.528Z,1005.92
2017-10-07T03:50:07.516Z,1005.91
2017-10-07T03:51:07.522Z,1005.91
2017-10-07T03:52:07.806Z,1005.93
2017-10-07T03:53:07.494Z,1005.87
2017-10-07T03:54:07.496Z,1005.89
2017-10-07T03:55:07.476Z,1005.91
2017-10-07T03:56:07.475Z,1005.92
2017-10-07T03:57:07.470Z,1005.90
2017-10-07T03:58:07.871Z,1005.92
2017-10-07T03:59:07.450Z,1005.88
2017-10-07T04:00:07.429Z,1005.85
2017-10-07T04:01:07.435Z,1005.88
2017-10-07T04:02:07.411Z,1005.82
2017-10-07T04:03:07.417Z,1005.84
2017-10-07T04:04:07.707Z,1005.82
2017-10-07T04:05:07.384Z,1005.83
2017-10-07T04:06:07.388Z,1005.80
2017-10-07T04:07:07.376Z,1005.79
2017-10-07T04:08:07.356Z,1005.78
2017-10-07T04:09:07.352Z,1005.75
2017-10-07T04:10:07.830Z,1005.77
2017-10-07T04:11:07.335Z,1005.75
2017-10-07T04:12:07.342Z,1005.71
2017-10-07T04:13:07.311Z,1005.76
2017-10-07T04:14:07.304Z,1005.74
2017-10-07T04:15:07.303Z,1005.75
2017-10-07T04:16:07.322Z,1005.75
2017-10-07T04:17:07.291Z,1005.72
2017-10-07T04:18:07.276Z,1005.71
2017-10-07T04:19:07.271Z,1005.70
2017-10-07T04:20:07.263Z,1005.70
2017-10-07T04:21:07.673Z,1005.71
2017-10-07T04:22:07.233Z,1005.70
2017-10-07T04:23:07.233Z,1005.72
2017-10-07T04:24:07.227Z,1005.75
2017-10-07T04:25:07.209Z,1005.73
2017-10-07T04:26:07.207Z,1005.72
2017-10-07T04:27:07.577Z,1005.76
2017-10-07T04:28:07.176Z,1005.71
2017-10-07T04:29:07.183Z,1005.71
2017-10-07T04:30:07.158Z,1005.69
2017-10-07T04:31:07.162Z,1005.69
2017-10-07T04:32:07.153Z,1005.73
2017-10-07T04:33:07.532Z,1005.74
2017-10-07T04:34:07.136Z,1005.69
2017-10-07T04:35:07.118Z,1005.73
2017-10-07T04:36:07.105Z,1005.72
2017-10-07T04:37:07.110Z,1005.73
2017-10-07T04:38:07.091Z,1005.72
2017-10-07T04:39:07.142Z,1005.69
2017-10-07T04:40:07.073Z,1005.67
2017-10-07T04:41:07.066Z,1005.66
2017-10-07T04:42:07.064Z,1005.68
2017-10-07T04:43:07.057Z,1005.64
2017-10-07T04:44:07.047Z,1005.61
2017-10-07T04:45:07.161Z,1005.62
2017-10-07T04:46:07.027Z,1005.63
2017-10-07T04:47:07.006Z,1005.65
2017-10-07T04:48:06.998Z,1005.64
2017-10-07T04:49:06.991Z,1005.64
2017-10-07T04:50:06.998Z,1005.65
2017-10-07T04:51:06.999Z,1005.62
2017-10-07T04:52:06.966Z,1005.62
2017-10-07T04:53:06.964Z,1005.63
2017-10-07T04:54:06.948Z,1005.62
2017-10-07T04:55:06.937Z,1005.60
2017-10-07T04:56:07.232Z,1005.63
2017-10-07T04:57:06.931Z,1005.61
2017-10-07T04:58:06.923Z,1005.57
2017-10-07T04:59:06.912Z,1005.58
2017-10-07T05:00:06.906Z,1005.57
2017-10-07T05:01:06.878Z,1005.58
2017-10-07T05:02:07.305Z,1005.61
2017-10-07T05:03:06.865Z,1005.58
2017-10-07T05:04:06.867Z,1005.60
2017-10-07T05:05:06.857Z,1005.57
2017-10-07T05:06:06.850Z,1005.61
2017-10-07T05:07:06.839Z,1005.62
2017-10-07T05:08:06.855Z,1005.64
2017-10-07T05:09:06.825Z,1005.66
2017-10-07T05:10:06.815Z,1005.65
2017-10-07T05:11:06.840Z,1005.65
2017-10-07T05:12:06.798Z,1005.65
2017-10-07T05:13:06.779Z,1005.63
2017-10-07T05:14:06.781Z,1005.62
2017-10-07T05:15:06.773Z,1005.63
2017-10-07T05:16:06.765Z,1005.58
2017-10-07T05:17:07.064Z,1005.53
2017-10-07T05:18:06.739Z,1005.58
2017-10-07T05:19:06.734Z,1005.56
2017-10-07T05:20:06.726Z,1005.57
2017-10-07T05:21:06.712Z,1005.53
2017-10-07T05:22:06.708Z,1005.53
2017-10-07T05:23:07.061Z,1005.57
2017-10-07T05:24:06.673Z,1005.52
2017-10-07T05:25:06.679Z,1005.54
2017-10-07T05:26:06.656Z,1005.52
2017-10-07T05:27:06.647Z,1005.49
2017-10-07T05:28:06.636Z,1005.45
2017-10-07T05:29:06.781Z,1005.46
2017-10-07T05:30:06.634Z,1005.47
2017-10-07T05:31:06.628Z,1005.46
2017-10-07T05:32:06.600Z,1005.48
2017-10-07T05:33:06.594Z,1005.46
2017-10-07T05:34:06.582Z,1005.43
2017-10-07T05:35:06.621Z,1005.45
2017-10-07T05:36:06.579Z,1005.39
2017-10-07T05:37:06.575Z,1005.40
2017-10-07T05:38:06.563Z,1005.35
2017-10-07T05:39:06.555Z,1005.34
2017-10-07T05:40:06.674Z,1005.36
2017-10-07T05:41:06.539Z,1005.38
2017-10-07T05:42:06.517Z,1005.33
2017-10-07T05:43:06.519Z,1005.35
2017-10-07T05:44:06.507Z,1005.34
2017-10-07T05:45:06.498Z,1005.35
2017-10-07T05:46:06.517Z,1005.34
2017-10-07T05:47:06.478Z,1005.31
2017-10-07T05:48:06.471Z,1005.23
2017-10-07T05:49:06.462Z,1005.23
2017-10-07T05:50:06.783Z,1005.23
2017-10-07T05:51:06.430Z,1005.18
2017-10-07T05:52:06.425Z,1005.17
2017-10-07T05:53:06.430Z,1005.25
2017-10-07T05:54:06.410Z,1005.22
2017-10-07T05:55:06.407Z,1005.16
2017-10-07T05:56:06.724Z,1005.18
2017-10-07T05:57:06.384Z,1005.18
2017-10-07T05:58:06.386Z,1005.12
2017-10-07T05:59:06.355Z,1005.12
2017-10-07T06:00:06.363Z,1005.12
2017-10-07T06:01:06.358Z,1005.10
2017-10-07T06:02:06.727Z,1005.08
2017-10-07T06:03:06.323Z,1005.06
2017-10-07T06:04:06.328Z,1005.04
2017-10-07T06:05:06.315Z,1005.06
2017-10-07T06:06:06.307Z,1005.02
2017-10-07T06:07:06.305Z,1005.03
2017-10-07T06:08:06.639Z,1005.01
2017-10-07T06:09:06.285Z,1004.97
2017-10-07T06:10:06.261Z,1004.98
2017-10-07T06:11:06.251Z,1004.93
2017-10-07T06:12:06.253Z,1004.92
2017-10-07T06:13:06.247Z,1004.88
2017-10-07T06:14:06.263Z,1004.94
2017-10-07T06:15:06.215Z,1004.93
2017-10-07T06:16:06.217Z,1004.89
2017-10-07T06:17:06.201Z,1004.85
2017-10-07T06:18:06.569Z,1004.85
2017-10-07T06:19:06.197Z,1004.83
2017-10-07T06:20:06.168Z,1004.86
2017-10-07T06:21:06.165Z,1004.86
2017-10-07T06:22:06.151Z,1004.89
2017-10-07T06:23:06.141Z,1004.86
2017-10-07T06:24:06.278Z,1004.81
2017-10-07T06:25:06.125Z,1004.82
2017-10-07T06:26:06.125Z,1004.79
2017-10-07T06:27:06.110Z,1004.81
2017-10-07T06:28:06.112Z,1004.79
2017-10-07T06:29:06.104Z,1004.75
2017-10-07T06:30:06.117Z,1004.77
2017-10-07T06:31:06.092Z,1004.74
2017-10-07T06:32:06.086Z,1004.74
2017-10-07T06:33:06.048Z,1004.72
2017-10-07T06:34:06.043Z,1004.73
2017-10-07T06:35:06.359Z,1004.68
2017-10-07T06:36:06.036Z,1004.70
2017-10-07T06:37:06.016Z,1004.67
2017-10-07T06:38:06.004Z,1004.70
2017-10-07T06:39:06.003Z,1004.67
2017-10-07T06:40:06.003Z,1004.66
2017-10-07T06:41:06.357Z,1004.65
2017-10-07T06:42:05.990Z,1004.62
2017-10-07T06:43:05.959Z,1004.61
2017-10-07T06:44:05.968Z,1004.63
2017-10-07T06:45:05.946Z,1004.62
2017-10-07T06:46:05.935Z,1004.58
2017-10-07T06:47:05.985Z,1004.61
2017-10-07T06:48:05.921Z,1004.54
2017-10-07T06:49:05.918Z,1004.59
2017-10-07T06:50:05.897Z,1004.58
2017-10-07T06:51:05.889Z,1004.61
2017-10-07T06:52:05.882Z,1004.56
2017-10-07T06:53:05.900Z,1004.56
2017-10-07T06:54:05.874Z,1004.59
2017-10-07T06:55:06.232Z,1004.60
2017-10-07T06:56:05.847Z,1004.58
2017-10-07T06:57:05.837Z,1004.55
2017-10-07T06:58:05.841Z,1004.48
2017-10-07T06:59:05.827Z,1004.48
2017-10-07T07:00:05.821Z,1004.48
2017-10-07T07:01:05.826Z,1004.48
2017-10-07T07:02:05.791Z,1004.46
2017-10-07T07:03:05.801Z,1004.49
2017-10-07T07:04:05.781Z,1004.43
2017-10-07T07:05:06.123Z,1004.45
2017-10-07T07:06:05.754Z,1004.44
2017-10-07T07:07:05.745Z,1004.42
2017-10-07T07:08:05.731Z,1004.41
2017-10-07T07:09:05.728Z,1004.44
2017-10-07T07:10:05.726Z,1004.43
2017-10-07T07:11:06.173Z,1004.42
2017-10-07T07:12:05.700Z,1004.36
2017-10-07T07:13:05.701Z,1004.38
2017-10-07T07:14:05.694Z,1004.34
2017-10-07T07:15:05.681Z,1004.42
2017-10-07T07:16:05.676Z,1004.38
2017-10-07T07:17:05.970Z,1004.35
2017-10-07T07:18:05.653Z,1004.32
2017-10-07T07:19:05.644Z,1004.29
2017-10-07T07:20:05.637Z,1004.30
2017-10-07T07:21:05.631Z,1004.30
2017-10-07T07:22:05.609Z,1004.26
2017-10-07T07:23:05.635Z,1004.20
2017-10-07T07:24:05.598Z,1004.26
2017-10-07T07:25:05.585Z,1004.21
2017-10-07T07:26:05.588Z,1004.21
2017-10-07T07:27:05.608Z,1004.22
2017-10-07T07:28:05.552Z,1004.23
2017-10-07T07:29:05.559Z,1004.17
2017-10-07T07:30:05.550Z,1004.14
2017-10-07T07:31:05.528Z,1004.11
2017-10-07T07:32:05.788Z,1004.10
2017-10-07T07:33:05.510Z,1004.17
2017-10-07T07:34:05.511Z,1004.11
2017-10-07T07:35:05.498Z,1004.12
2017-10-07T07:36:05.508Z,1004.07
2017-10-07T07:37:05.476Z,1004.11
2017-10-07T07:38:05.601Z,1004.16
2017-10-07T07:39:05.467Z,1004.10
2017-10-07T07:40:05.462Z,1004.03
2017-10-07T07:41:05.447Z,1004.01
2017-10-07T07:42:05.431Z,1004.05
2017-10-07T07:43:05.429Z,1003.97
2017-10-07T07:44:05.892Z,1003.98
2017-10-07T07:45:05.398Z,1003.94
2017-10-07T07:46:05.398Z,1003.92
2017-10-07T07:47:05.403Z,1003.95
2017-10-07T07:48:05.376Z,1003.97
2017-10-07T07:49:05.369Z,1003.89
2017-10-07T07:50:05.386Z,1003.91
2017-10-07T07:51:05.357Z,1003.88
2017-10-07T07:52:05.349Z,1003.87
2017-10-07T07:53:05.332Z,1003.88
2017-10-07T07:54:05.323Z,1003.87
2017-10-07T07:55:05.782Z,1003.81
2017-10-07T07:56:05.315Z,1003.80
2017-10-07T07:57:05.291Z,1003.77
2017-10-07T07:58:05.283Z,1003.74
2017-10-07T07:59:05.277Z,1003.77
2017-10-07T08:00:05.262Z,1003.68
2017-10-07T08:01:05.612Z,1003.71
2017-10-07T08:02:05.253Z,1003.67
2017-10-07T08:03:05.252Z,1003.62
2017-10-07T08:04:05.239Z,1003.61
2017-10-07T08:05:05.231Z,1003.61
2017-10-07T08:06:05.220Z,1003.60
2017-10-07T08:07:05.283Z,1003.58
2017-10-07T08:08:05.202Z,1003.55
2017-10-07T08:09:05.197Z,1003.59
2017-10-07T08:10:05.186Z,1003.58
2017-10-07T08:11:05.176Z,1003.49
2017-10-07T08:12:05.157Z,1003.51
2017-10-07T08:13:05.228Z,1003.51
2017-10-07T08:14:05.138Z,1003.55
2017-10-07T08:15:05.128Z,1003.56
2017-10-07T08:16:05.129Z,1003.58
2017-10-07T08:17:05.130Z,1003.58
2017-10-07T08:18:05.114Z,1003.56
2017-10-07T08:19:05.157Z,1003.55
2017-10-07T08:20:05.083Z,1003.52
2017-10-07T08:21:05.087Z,1003.55
2017-10-07T08:22:05.077Z,1003.49
2017-10-07T08:23:05.068Z,1003.45
2017-10-07T08:24:05.047Z,1003.49
2017-10-07T08:25:05.317Z,1003.46
2017-10-07T08:26:05.026Z,1003.48
2017-10-07T08:27:05.018Z,1003.42
2017-10-07T08:28:05.023Z,1003.45
2017-10-07T08:29:05.002Z,1003.39
2017-10-07T08:30:04.997Z,1003.41
2017-10-07T08:31:05.392Z,1003.33
2017-10-07T08:32:04.994Z,1003.23
2017-10-07T08:33:04.963Z,1003.19
2017-10-07T08:34:04.968Z,1003.22
2017-10-07T08:35:04.945Z,1003.23
2017-10-07T08:36:04.952Z,1003.21
2017-10-07T08:37:05.375Z,1003.19
2017-10-07T08:38:04.933Z,1003.17
2017-10-07T08:39:04.911Z,1003.21
2017-10-07T08:40:04.920Z,1003.19
2017-10-07T08:41:04.902Z,1003.23
2017-10-07T08:42:04.885Z,1003.19
2017-10-07T08:43:04.938Z,1003.22
2017-10-07T08:44:04.879Z,1003.18
2017-10-07T08:45:04.860Z,1003.16
2017-10-07T08:46:04.854Z,1003.14
2017-10-07T08:47:04.846Z,1003.11
2017-10-07T08:48:04.845Z,1003.08
2017-10-07T08:49:05.253Z,1003.06
2017-10-07T08:50:04.822Z,1002.99
2017-10-07T08:51:04.814Z,1002.98
2017-10-07T08:52:04.806Z,1002.96
2017-10-07T08:53:04.794Z,1002.92
2017-10-07T08:54:04.772Z,1002.90
2017-10-07T08:55:05.241Z,1002.87
2017-10-07T08:56:04.756Z,1002.84
2017-10-07T08:57:04.760Z,1002.82
2017-10-07T08:58:04.734Z,1002.83
2017-10-07T08:59:04.742Z,1002.78
2017-10-07T09:00:04.717Z,1002.83
2017-10-07T09:01:05.106Z,1002.81
2017-10-07T09:02:04.701Z,1002.81
2017-10-07T09:03:04.702Z,1002.79
2017-10-07T09:04:04.686Z,1002.70
2017-10-07T09:05:04.693Z,1002.79
2017-10-07T09:06:04.662Z,1002.80
2017-10-07T09:07:04.740Z,1002.75
2017-10-07T09:08:04.659Z,1002.73
2017-10-07T09:09:04.651Z,1002.77
2017-10-07T09:10:04.635Z,1002.75
2017-10-07T09:11:04.638Z,1002.77
2017-10-07T09:12:04.611Z,1002.73
2017-10-07T09:13:04.633Z,1002.77
2017-10-07T09:14:04.605Z,1002.67
2017-10-07T09:15:04.598Z,1002.71
2017-10-07T09:16:04.574Z,1002.67
2017-10-07T09:17:04.714Z,1002.66
2017-10-07T09:18:04.572Z,1002.61
2017-10-07T09:19:04.555Z,1002.57
2017-10-07T09:20:04.549Z,1002.51
2017-10-07T09:21:04.539Z,1002.51
2017-10-07T09:22:04.535Z,1002.48
2017-10-07T09:23:04.553Z,1002.43
2017-10-07T09:24:04.507Z,1002.45
2017-10-07T09:25:04.499Z,1002.42
2017-10-07T09:26:04.499Z,1002.32
2017-10-07T09:27:04.476Z,1002.35
2017-10-07T09:28:04.605Z,1002.27
2017-10-07T09:29:04.456Z,1002.26
2017-10-07T09:30:04.458Z,1002.23
2017-10-07T09:31:04.451Z,1002.27
2017-10-07T09:32:04.444Z,1002.20
2017-10-07T09:33:04.419Z,1002.19
2017-10-07T09:34:05.060Z,1002.17
2017-10-07T09:35:04.416Z,1002.13
2017-10-07T09:36:04.413Z,1002.15
2017-10-07T09:37:04.396Z,1002.14
2017-10-07T09:38:04.381Z,1002.10
2017-10-07T09:39:04.369Z,1002.09
2017-10-07T09:40:04.499Z,1002.08
2017-10-07T09:41:04.368Z,1002.00
2017-10-07T09:42:04.338Z,1002.00
2017-10-07T09:43:04.336Z,1002.00
2017-10-07T09:44:04.320Z,1002.03
2017-10-07T09:45:04.324Z,1002.05
2017-10-07T09:46:04.633Z,1002.04
2017-10-07T09:47:04.298Z,1002.03
2017-10-07T09:48:04.294Z,1002.03
2017-10-07T09:49:04.287Z,1002.05
2017-10-07T09:50:04.286Z,1002.06
2017-10-07T09:51:04.269Z,1002.04
2017-10-07T09:52:04.591Z,1002.06
2017-10-07T09:53:04.252Z,1002.08
2017-10-07T09:54:04.233Z,1002.09
2017-10-07T09:55:04.219Z,1002.15
2017-10-07T09:56:04.224Z,1002.16
2017-10-07T09:57:04.204Z,1002.13
2017-10-07T09:58:04.527Z,1002.16
2017-10-07T09:59:04.197Z,1002.19
2017-10-07T10:00:04.175Z,1002.15
2017-10-07T10:01:04.178Z,1002.22
2017-10-07T10:02:04.155Z,1002.24
2017-10-07T10:03:04.150Z,1002.17
2017-10-07T10:04:04.163Z,1002.19
2017-10-07T10:05:04.142Z,1002.14
2017-10-07T10:06:04.133Z,1002.16
2017-10-07T10:07:04.114Z,1002.10
2017-10-07T10:08:04.114Z,1002.07
2017-10-07T10:09:04.161Z,1002.04
2017-10-07T10:10:04.096Z,1001.97
2017-10-07T10:11:04.079Z,1001.93
2017-10-07T10:12:04.063Z,1001.88
2017-10-07T10:13:04.072Z,1001.88
2017-10-07T10:14:04.060Z,1001.86
2017-10-07T10:15:04.079Z,1001.80
2017-10-07T10:16:04.045Z,1001.80
2017-10-07T10:17:04.031Z,1001.84
2017-10-07T10:18:04.033Z,1001.88
2017-10-07T10:19:04.002Z,1001.92
2017-10-07T10:20:04.427Z,1001.87
2017-10-07T10:21:03.996Z,1001.84
2017-10-07T10:22:03.991Z,1001.74
2017-10-07T10:23:03.980Z,1001.64
2017-10-07T10:24:03.969Z,1001.56
2017-10-07T10:25:03.960Z,1001.60
2017-10-07T10:26:03.992Z,1001.55
2017-10-07T10:27:03.941Z,1001.51
2017-10-07T10:28:03.926Z,1001.49
2017-10-07T10:29:03.913Z,1001.51
2017-10-07T10:30:03.913Z,1001.45
2017-10-07T10:31:03.890Z,1001.48
2017-10-07T10:32:04.204Z,1001.51
2017-10-07T10:33:03.881Z,1001.43
2017-10-07T10:34:03.886Z,1001.41
2017-10-07T10:35:03.860Z,1001.46
2017-10-07T10:36:03.862Z,1001.44
2017-10-07T10:37:03.840Z,1001.43
2017-10-07T10:38:04.271Z,1001.45
2017-10-07T10:39:03.832Z,1001.46
2017-10-07T10:40:03.827Z,1001.44
2017-10-07T10:41:03.812Z,1001.42
2017-10-07T10:42:03.809Z,1001.41
2017-10-07T10:43:03.795Z,1001.40
2017-10-07T10:44:04.174Z,1001.39
2017-10-07T10:45:03.780Z,1001.41
2017-10-07T10:46:03.769Z,1001.39
2017-10-07T10:47:03.751Z,1001.34
2017-10-07T10:48:03.749Z,1001.30
2017-10-07T10:49:03.728Z,1001.28
2017-10-07T10:50:04.154Z,1001.38
2017-10-07T10:51:03.724Z,1001.37
2017-10-07T10:52:03.702Z,1001.28
2017-10-07T10:53:03.699Z,1001.30
2017-10-07T10:54:03.692Z,1001.29
2017-10-07T10:55:03.676Z,1001.30
2017-10-07T10:56:03.692Z,1001.24
2017-10-07T10:57:03.662Z,1001.25
2017-10-07T10:58:03.657Z,1001.19
2017-10-07T10:59:03.660Z,1001.12
2017-10-07T11:00:04.025Z,1001.10
2017-10-07T11:01:03.636Z,1001.08
2017-10-07T11:02:03.624Z,1001.05
2017-10-07T11:03:03.603Z,1001.03
2017-10-07T11:04:03.607Z,1000.96
2017-10-07T11:05:03.591Z,1000.92
2017-10-07T11:06:03.614Z,1000.88
2017-10-07T11:07:03.568Z,1000.94
2017-10-07T11:08:03.559Z,1000.89
2017-10-07T11:09:03.568Z,1000.91
2017-10-07T11:10:03.582Z,1000.93
2017-10-07T11:11:03.541Z,1000.92
2017-10-07T11:12:03.534Z,1000.85
2017-10-07T11:13:03.522Z,1000.81
2017-10-07T11:14:03.505Z,1000.85
2017-10-07T11:15:03.839Z,1000.82
2017-10-07T11:16:03.482Z,1000.82
2017-10-07T11:17:03.476Z,1000.84
2017-10-07T11:18:03.481Z,1000.82
2017-10-07T11:19:03.465Z,1000.75
2017-10-07T11:20:03.449Z,1000.77
2017-10-07T11:21:03.740Z,1000.77
2017-10-07T11:22:03.446Z,1000.69
2017-10-07T11:23:03.430Z,1000.68
2017-10-07T11:24:03.429Z,1000.75
2017-10-07T11:25:03.412Z,1000.71
2017-10-07T11:26:03.391Z,1000.66
2017-10-07T11:27:03.826Z,1000.68
2017-10-07T11:28:03.386Z,1000.63
2017-10-07T11:29:03.364Z,1000.61
2017-10-07T11:30:03.367Z,1000.57
2017-10-07T11:31:03.344Z,1000.54
2017-10-07T11:32:03.352Z,1000.49
2017-10-07T11:33:03.634Z,1000.53
2017-10-07T11:34:03.322Z,1000.48
2017-10-07T11:35:03.331Z,1000.40
2017-10-07T11:36:03.319Z,1000.42
2017-10-07T11:37:03.301Z,1000.42
2017-10-07T11:38:03.282Z,1000.46
2017-10-07T11:39:03.672Z,1000.42
2017-10-07T11:40:03.265Z,1000.38
2017-10-07T11:41:03.258Z,1000.37
2017-10-07T11:42:03.263Z,1000.35
2017-10-07T11:43:03.260Z,1000.33
2017-10-07T11:44:03.240Z,1000.28
2017-10-07T11:45:03.617Z,1000.30
2017-10-07T11:46:03.220Z,1000.22
2017-10-07T11:47:03.213Z,1000.24
2017-10-07T11:48:03.203Z,1000.23
2017-10-07T11:49:03.183Z,1000.22
2017-10-07T11:50:03.176Z,1000.22
2017-10-07T11:51:03.453Z,1000.21
2017-10-07T11:52:03.156Z,1000.20
2017-10-07T11:53:03.147Z,1000.23
2017-10-07T11:54:03.133Z,1000.16
2017-10-07T11:55:03.140Z,1000.14
2017-10-07T11:56:03.119Z,1000.13
2017-10-07T11:57:03.483Z,1000.10
2017-10-07T11:58:03.110Z,1000.06
2017-10-07T11:59:03.091Z,1000.05
2017-10-07T12:00:03.088Z,1000.08
2017-10-07T12:01:03.085Z,999.95
2017-10-07T12:02:03.060Z,999.98
2017-10-07T12:03:03.478Z,1000.02
2017-10-07T12:04:03.060Z,999.97
2017-10-07T12:05:03.048Z,999.93